Time;durP1;ratioP1;P1;durP2;ratioP2;P2;SDS_P1;SDS_P2;PMS_P1;PMS_P2;Temp;Humidity;BMP_temperature;BMP_pressure;BME280_temperature;BME280_humidity;BME280_pressure;Samples;Min_cycle;Max_cycle;Signal;HPM_P1;HPM_P2
2023/06/30 00:01:33;;;;;;;0.40;0.40;;;12.90;99.90;;;;;;5095663;28;20044;-62
2023/06/30 00:03:58;;;;;;;;;;;12.60;99.90;;;;;;5095294;28;20055;-61
2023/06/30 00:06:24;;;;;;;8.77;0.30;;;12.90;99.90;;;;;;5095259;28;20352;-62
2023/06/30 00:08:51;;;;;;;0.20;0.20;;;13.50;99.90;;;;;;5095224;28;20522;-65
2023/06/30 00:11:19;;;;;;;0.20;0.20;;;13.10;99.90;;;;;;5095249;28;20048;-60
2023/06/30 00:13:45;;;;;;;0.20;0.20;;;13.00;99.90;;;;;;5095152;28;20036;-61
2023/06/30 00:16:11;;;;;;;0.10;0.10;;;12.70;99.90;;;;;;5093938;28;20127;-61
2023/06/30 00:18:37;;;;;;;0.30;0.30;;;12.80;99.90;;;;;;5095055;28;20063;-61
2023/06/30 00:21:03;;;;;;;0.20;0.20;;;13.30;99.90;;;;;;5095478;28;20127;-61
2023/06/30 00:23:28;;;;;;;;;;;13.20;99.90;;;;;;5095273;28;20044;-62
2023/06/30 00:25:55;;;;;;;0.30;0.30;;;13.40;99.90;;;;;;5094924;28;20018;-63
2023/06/30 00:28:21;;;;;;;0.57;0.57;;;12.60;99.90;;;;;;5095363;28;20051;-60
2023/06/30 00:30:46;;;;;;;;;;;13.00;99.90;;;;;;5095247;28;20122;-62
2023/06/30 00:33:13;;;;;;;0.30;0.30;;;12.40;99.90;;;;;;5094836;28;19920;-61
2023/06/30 00:35:38;;;;;;;0.30;0.30;;;12.60;99.90;;;;;;5094958;28;20481;-61
2023/06/30 00:38:04;;;;;;;1.85;0.60;;;13.10;99.90;;;;;;5095200;28;20131;-64
2023/06/30 00:40:30;;;;;;;0.22;0.22;;;12.90;99.90;;;;;;5094609;28;20365;-62
2023/06/30 00:42:55;;;;;;;0.20;0.20;;;12.50;99.90;;;;;;5094587;28;20047;-62
2023/06/30 00:45:21;;;;;;;0.30;0.30;;;12.40;99.90;;;;;;5094573;28;20075;-61
2023/06/30 00:47:47;;;;;;;0.30;0.30;;;13.10;99.90;;;;;;5094553;28;20051;-62
2023/06/30 00:50:13;;;;;;;0.35;0.35;;;12.90;99.90;;;;;;5093414;28;20054;-62
2023/06/30 00:52:42;;;;;;;0.35;0.35;;;12.70;99.90;;;;;;5093673;28;20113;-61
2023/06/30 00:55:08;;;;;;;0.85;0.30;;;12.40;99.90;;;;;;5094776;28;20048;-60
2023/06/30 00:57:34;;;;;;;0.60;0.50;;;12.20;99.90;;;;;;5094357;28;20112;-61
2023/06/30 01:00:05;;;;;;;0.25;0.25;;;12.80;99.90;;;;;;5094259;28;20095;-64
2023/06/30 01:02:33;;;;;;;4.78;0.63;;;12.90;99.90;;;;;;5094359;28;20392;-62
2023/06/30 01:05:05;;;;;;;0.17;0.17;;;12.80;99.90;;;;;;5094414;28;20052;-64
2023/06/30 01:07:48;;;;;;;0.50;0.50;;;12.90;99.90;;;;;;5094091;28;20067;-61
2023/06/30 01:10:18;;;;;;;0.30;0.30;;;13.00;99.90;;;;;;5094051;28;20047;-61
2023/06/30 01:12:45;;;;;;;0.30;0.30;;;12.80;99.90;;;;;;5094016;28;20036;-61
2023/06/30 01:15:11;;;;;;;;;;;12.40;99.90;;;;;;5094363;28;20047;-61
2023/06/30 01:17:46;;;;;;;0.20;0.20;;;12.60;99.90;;;;;;5094239;28;19965;-64
2023/06/30 01:20:13;;;;;;;0.20;0.20;;;12.60;99.90;;;;;;5093903;28;20135;-61
2023/06/30 01:22:46;;;;;;;0.20;0.20;;;12.10;99.90;;;;;;5093771;28;20056;-61
2023/06/30 01:25:25;;;;;;;0.85;0.75;;;12.70;99.90;;;;;;5093767;28;20044;-62
2023/06/30 01:27:51;;;;;;;0.20;0.20;;;12.70;99.90;;;;;;5094099;28;20131;-61
2023/06/30 01:30:17;;;;;;;0.30;0.30;;;12.30;99.90;;;;;;5093385;28;20052;-61
2023/06/30 01:32:43;;;;;;;0.30;0.30;;;12.60;99.90;;;;;;5093724;28;20075;-61
2023/06/30 01:35:09;;;;;;;0.20;0.20;;;12.40;99.90;;;;;;5093679;28;20130;-61
2023/06/30 01:37:34;;;;;;;0.20;0.20;;;12.50;99.90;;;;;;5094101;28;20091;-61
2023/06/30 01:40:00;;;;;;;0.50;0.50;;;12.60;99.90;;;;;;5094293;28;20050;-68
2023/06/30 01:42:27;;;;;;;0.20;0.20;;;12.30;99.90;;;;;;5093508;28;20051;-61
2023/06/30 01:44:53;;;;;;;0.40;0.40;;;12.00;99.90;;;;;;5093521;28;20097;-61
2023/06/30 01:47:19;;;;;;;0.25;0.25;;;12.70;99.90;;;;;;5093909;28;20396;-61
2023/06/30 01:49:45;;;;;;;0.30;0.30;;;12.10;99.90;;;;;;5093383;28;20040;-61
2023/06/30 01:52:11;;;;;;;;;;;12.50;99.90;;;;;;5093824;28;20143;-64
2023/06/30 01:54:36;;;;;;;0.30;0.30;;;12.60;99.90;;;;;;5093845;28;19974;-62
2023/06/30 01:57:02;;;;;;;0.52;0.47;;;11.80;99.90;;;;;;5092280;28;20040;-61
2023/06/30 01:59:28;;;;;;;0.40;0.40;;;12.40;99.90;;;;;;5093331;28;20112;-60
2023/06/30 02:01:54;;;;;;;0.30;0.30;;;12.30;99.90;;;;;;5092050;28;20040;-61
2023/06/30 02:04:19;;;;;;;0.30;0.30;;;11.80;99.90;;;;;;5093634;28;20419;-63
2023/06/30 02:06:45;;;;;;;0.73;0.73;;;12.10;99.90;;;;;;5093238;28;20079;-62
2023/06/30 02:09:14;;;;;;;0.22;0.22;;;12.30;99.90;;;;;;5093195;28;20384;-61
2023/06/30 02:11:40;;;;;;;0.60;0.60;;;12.40;99.90;;;;;;5093089;28;20051;-63
2023/06/30 02:14:05;;;;;;;0.68;0.68;;;11.80;99.90;;;;;;5093119;28;20040;-61
2023/06/30 02:16:31;;;;;;;0.88;0.88;;;11.70;99.90;;;;;;5093567;28;20043;-62
2023/06/30 02:18:57;;;;;;;0.30;0.30;;;12.10;99.90;;;;;;5093159;28;20040;-61
2023/06/30 02:21:24;;;;;;;0.40;0.40;;;11.70;99.90;;;;;;5093088;28;20464;-63
2023/06/30 02:23:49;;;;;;;0.55;0.55;;;11.50;99.90;;;;;;5092954;28;20123;-61
2023/06/30 02:26:15;;;;;;;0.45;0.45;;;12.30;99.90;;;;;;5093086;28;20091;-61
2023/06/30 02:28:41;;;;;;;0.90;0.43;;;11.70;99.90;;;;;;5093030;28;20131;-67
2023/06/30 02:31:07;;;;;;;0.88;0.50;;;11.60;99.90;;;;;;5093034;28;20040;-61
2023/06/30 02:33:33;;;;;;;0.20;0.20;;;11.30;99.90;;;;;;5092983;28;20123;-61
2023/06/30 02:35:58;;;;;;;0.20;0.20;;;11.90;99.90;;;;;;5093712;28;20085;-65
2023/06/30 02:38:24;;;;;;;0.40;0.40;;;12.30;99.90;;;;;;5092932;28;20472;-62
2023/06/30 02:40:50;;;;;;;0.30;0.30;;;11.60;99.90;;;;;;5096273;28;20043;-61
2023/06/30 02:43:15;;;;;;;0.22;0.22;;;12.40;99.90;;;;;;5095631;28;20464;-61
2023/06/30 02:45:41;;;;;;;0.20;0.20;;;11.60;99.90;;;;;;5095403;28;20044;-62
2023/06/30 02:48:07;;;;;;;0.20;0.20;;;12.30;99.90;;;;;;5096808;28;20070;-63
2023/06/30 02:50:32;;;;;;;0.30;0.30;;;11.50;99.90;;;;;;5097032;28;20096;-61
2023/06/30 02:52:59;;;;;;;0.22;0.22;;;11.50;99.90;;;;;;5096910;28;20036;-61
2023/06/30 02:55:25;;;;;;;0.20;0.20;;;11.60;99.90;;;;;;5097116;28;20365;-61
2023/06/30 02:57:51;;;;;;;0.20;0.20;;;11.80;99.90;;;;;;5097090;28;20155;-61
2023/06/30 03:00:17;;;;;;;0.20;0.20;;;12.50;99.90;;;;;;5096978;28;20055;-62
2023/06/30 03:02:42;;;;;;;;;;;11.70;99.90;;;;;;5096545;28;20108;-61
2023/06/30 03:05:09;;;;;;;0.40;0.40;;;12.00;99.90;;;;;;5097212;28;20022;-62
2023/06/30 03:07:35;;;;;;;0.25;0.25;;;11.80;99.90;;;;;;5096374;28;20117;-61
2023/06/30 03:10:01;;;;;;;5.82;0.40;;;12.30;99.90;;;;;;5096368;28;20043;-62
2023/06/30 03:12:27;;;;;;;;;;;11.40;99.90;;;;;;5097153;28;20383;-61
2023/06/30 03:14:52;;;;;;;0.50;0.50;;;11.40;99.90;;;;;;5096314;28;19920;-62
2023/06/30 03:17:18;;;;;;;0.40;0.40;;;12.30;99.90;;;;;;5096237;28;20056;-61
2023/06/30 03:19:44;;;;;;;0.20;0.20;;;11.80;99.90;;;;;;5095037;28;20067;-62
2023/06/30 03:22:10;;;;;;;0.28;0.28;;;12.10;99.90;;;;;;5096136;28;20095;-61
2023/06/30 03:24:36;;;;;;;;;;;11.70;99.90;;;;;;5096522;28;20153;-61
2023/06/30 03:27:01;;;;;;;0.40;0.40;;;11.90;99.90;;;;;;5096074;28;19920;-62
2023/06/30 03:29:27;;;;;;;0.30;0.30;;;11.70;99.90;;;;;;5096065;28;20083;-61
2023/06/30 03:31:53;;;;;;;0.30;0.30;;;11.60;99.90;;;;;;5096264;28;20135;-61
2023/06/30 03:34:19;;;;;;;;;;;11.40;99.90;;;;;;5096396;28;20110;-61
2023/06/30 03:36:45;;;;;;;0.30;0.30;;;11.50;99.90;;;;;;5096415;28;20363;-61
2023/06/30 03:39:11;;;;;;;0.30;0.30;;;11.20;99.90;;;;;;5096580;28;20437;-61
2023/06/30 03:41:37;;;;;;;0.30;0.30;;;11.10;99.90;;;;;;5096323;28;20062;-63
2023/06/30 03:44:03;;;;;;;0.32;0.32;;;12.30;99.90;;;;;;5095685;28;20048;-61
2023/06/30 03:46:28;;;;;;;0.20;0.20;;;11.60;99.90;;;;;;5095700;28;20089;-60
2023/06/30 03:48:54;;;;;;;0.20;0.20;;;11.30;99.90;;;;;;5095986;28;20040;-61
2023/06/30 03:51:20;;;;;;;0.40;0.40;;;11.80;99.90;;;;;;5095067;28;20168;-61
2023/06/30 03:53:46;;;;;;;0.20;0.20;;;12.00;99.90;;;;;;5096053;28;20048;-62
2023/06/30 03:56:11;;;;;;;0.28;0.28;;;11.40;99.90;;;;;;5096266;28;20044;-61
2023/06/30 03:58:37;;;;;;;0.30;0.30;;;11.50;99.90;;;;;;5095551;28;20503;-62
2023/06/30 04:01:03;;;;;;;0.25;0.25;;;11.80;99.90;;;;;;5095448;28;20396;-61
2023/06/30 04:03:28;;;;;;;0.32;0.32;;;12.10;99.90;;;;;;5095167;28;20056;-61
2023/06/30 04:05:54;;;;;;;0.30;0.30;;;11.30;99.90;;;;;;5095369;28;20040;-62
2023/06/30 04:08:20;;;;;;;0.32;0.32;;;11.00;99.90;;;;;;5095299;28;20376;-61
2023/06/30 04:10:45;;;;;;;0.30;0.30;;;11.40;99.90;;;;;;5095296;28;20051;-61
2023/06/30 04:13:11;;;;;;;10.90;0.57;;;12.20;99.90;;;;;;5095116;28;20059;-61
2023/06/30 04:15:37;;;;;;;1.10;1.10;;;12.70;99.90;;;;;;5095165;28;20051;-64
2023/06/30 04:18:04;;;;;;;0.55;0.40;;;11.60;99.90;;;;;;5095922;28;20143;-61
2023/06/30 04:20:29;;;;;;;0.30;0.30;;;12.10;99.90;;;;;;5094710;28;20484;-61
2023/06/30 04:22:55;;;;;;;0.20;0.20;;;11.50;99.90;;;;;;5094986;28;20040;-61
2023/06/30 04:25:21;;;;;;;0.20;0.20;;;11.70;99.90;;;;;;5094978;28;20048;-61
2023/06/30 04:27:47;;;;;;;1.58;1.23;;;12.30;99.90;;;;;;5095508;28;20127;-60
2023/06/30 04:30:13;;;;;;;0.40;0.40;;;11.90;99.90;;;;;;5094902;28;20048;-65
2023/06/30 04:32:39;;;;;;;;;;;12.50;99.90;;;;;;5095949;28;20052;-61
2023/06/30 04:35:05;;;;;;;0.40;0.40;;;12.20;99.90;;;;;;5094785;28;19945;-61
2023/06/30 04:37:31;;;;;;;0.35;0.35;;;11.80;99.90;;;;;;5094724;28;20090;-62
2023/06/30 04:39:59;;;;;;;0.22;0.22;;;12.20;99.90;;;;;;5095360;28;20084;-61
2023/06/30 04:42:28;;;;;;;0.40;0.40;;;12.20;99.90;;;;;;5094662;28;20127;-63
2023/06/30 04:44:54;;;;;;;0.35;0.35;;;12.20;99.90;;;;;;5094577;28;20048;-61
2023/06/30 04:47:19;;;;;;;0.35;0.35;;;11.80;99.90;;;;;;5094523;28;20056;-62
2023/06/30 04:49:45;;;;;;;0.20;0.20;;;13.00;99.90;;;;;;5095003;28;20040;-61
2023/06/30 04:52:11;;;;;;;0.30;0.30;;;12.00;99.90;;;;;;5093742;28;20376;-65
2023/06/30 04:54:37;;;;;;;0.52;0.52;;;12.70;99.90;;;;;;5093360;28;20396;-69
2023/06/30 04:57:04;;;;;;;0.40;0.40;;;12.60;99.90;;;;;;5094341;28;20131;-61
2023/06/30 04:59:30;;;;;;;0.30;0.30;;;12.50;99.90;;;;;;5094274;28;20144;-61
2023/06/30 05:01:56;;;;;;;0.30;0.30;;;12.70;99.90;;;;;;5093027;28;20146;-60
2023/06/30 05:04:21;;;;;;;0.25;0.25;;;12.70;99.90;;;;;;5093404;28;20060;-64
2023/06/30 05:06:47;;;;;;;0.60;0.60;;;12.80;99.90;;;;;;5094682;28;20464;-61
2023/06/30 05:09:13;;;;;;;0.30;0.30;;;13.70;99.90;;;;;;5093836;28;20052;-67
2023/06/30 05:11:39;;;;;;;0.43;0.43;;;13.20;99.90;;;;;;5093273;28;20147;-61
2023/06/30 05:14:04;;;;;;;0.52;0.52;;;14.20;99.90;;;;;;5094015;28;20151;-61
2023/06/30 05:16:30;;;;;;;1.27;0.80;;;13.70;99.90;;;;;;5093572;28;20040;-65
2023/06/30 05:18:56;;;;;;;0.57;0.57;;;13.60;99.90;;;;;;5093947;28;20412;-61
2023/06/30 05:21:22;;;;;;;0.22;0.22;;;14.10;99.90;;;;;;5094534;28;20483;-61
2023/06/30 05:23:47;;;;;;;0.30;0.30;;;14.50;99.90;;;;;;5092460;28;20444;-61
2023/06/30 05:26:13;;;;;;;0.28;0.28;;;15.60;99.90;;;;;;5092742;28;20106;-66
2023/06/30 05:28:39;;;;;;;;;;;16.00;99.90;;;;;;5092998;28;20044;-61
2023/06/30 05:31:05;;;;;;;0.35;0.35;;;16.20;99.90;;;;;;5093665;28;20260;-61
2023/06/30 05:33:30;;;;;;;0.63;0.63;;;15.20;99.90;;;;;;5093684;28;20395;-61
2023/06/30 05:35:56;;;;;;;0.40;0.40;;;16.20;99.90;;;;;;5093633;28;20063;-61
2023/06/30 05:38:22;;;;;;;;;;;15.90;99.90;;;;;;5094766;28;20047;-62
2023/06/30 05:40:47;;;;;;;0.20;0.20;;;15.70;99.90;;;;;;5093028;28;20358;-62
2023/06/30 05:43:13;;;;;;;;;;;15.80;99.90;;;;;;5092163;28;20125;-64
2023/06/30 05:45:39;;;;;;;0.63;0.60;;;15.20;99.90;;;;;;5093424;28;19931;-64
2023/06/30 05:48:04;;;;;;;;;;;15.10;99.90;;;;;;5094598;28;20081;-61
2023/06/30 05:50:30;;;;;;;0.52;0.40;;;15.50;99.90;;;;;;5093344;28;20313;-62
2023/06/30 05:52:56;;;;;;;;;;;15.00;99.90;;;;;;5093677;28;20036;-62
2023/06/30 05:55:22;;;;;;;0.30;0.30;;;14.60;99.90;;;;;;5093621;28;20043;-62
2023/06/30 05:57:47;;;;;;;;;;;14.80;99.90;;;;;;5092471;28;20036;-62
2023/06/30 06:00:13;;;;;;;0.20;0.20;;;14.70;99.90;;;;;;5093177;28;19943;-65
2023/06/30 06:02:39;;;;;;;0.22;0.22;;;14.80;99.90;;;;;;5093473;28;20418;-63
2023/06/30 06:05:06;;;;;;;0.63;0.63;;;14.80;99.90;;;;;;5092049;28;20073;-67
2023/06/30 06:07:32;;;;;;;0.40;0.40;;;15.00;99.90;;;;;;5093222;28;20123;-62
2023/06/30 06:09:57;;;;;;;;;;;15.50;99.90;;;;;;5093577;28;20047;-62
2023/06/30 06:12:23;;;;;;;0.10;0.10;;;15.90;99.90;;;;;;5092116;28;20338;-63
2023/06/30 06:14:48;;;;;;;;;;;15.80;99.90;;;;;;5093279;28;20047;-63
2023/06/30 06:17:14;;;;;;;0.30;0.30;;;15.20;99.90;;;;;;5093329;28;19927;-65
2023/06/30 06:19:40;;;;;;;;;;;15.90;99.90;;;;;;5093401;28;20083;-64
2023/06/30 06:22:05;;;;;;;0.20;0.20;;;15.80;99.90;;;;;;5093046;28;19920;-63
2023/06/30 06:24:32;;;;;;;;;;;15.10;99.90;;;;;;5093825;28;20044;-63
2023/06/30 06:26:57;;;;;;;0.20;0.20;;;15.90;99.90;;;;;;5093454;28;19920;-62
2023/06/30 06:29:23;;;;;;;;;;;15.70;99.90;;;;;;5093123;28;20276;-64
2023/06/30 06:31:49;;;;;;;0.20;0.20;;;15.90;99.90;;;;;;5092887;28;19949;-68
2023/06/30 06:34:19;;;;;;;0.10;0.10;;;15.80;99.90;;;;;;5092692;28;20050;-62
2023/06/30 06:36:45;;;;;;;0.20;0.20;;;15.90;99.90;;;;;;5092578;28;20048;-63
2023/06/30 06:39:11;;;;;;;0.10;0.10;;;16.00;99.90;;;;;;5093263;28;20040;-63
2023/06/30 06:41:37;;;;;;;;;;;15.60;99.90;;;;;;5093237;28;20182;-63
2023/06/30 06:44:03;;;;;;;0.20;0.20;;;15.50;99.90;;;;;;5092392;28;19924;-64
2023/06/30 06:46:29;;;;;;;0.52;0.52;;;16.50;99.90;;;;;;5092771;28;20066;-63
2023/06/30 06:48:55;;;;;;;;;;;16.10;99.90;;;;;;5092463;28;20476;-61
2023/06/30 06:51:21;;;;;;;1.17;0.50;;;16.00;99.90;;;;;;5093028;28;19920;-62
2023/06/30 06:53:46;;;;;;;;;;;16.00;99.90;;;;;;5093654;28;20448;-61
2023/06/30 06:56:12;;;;;;;0.10;0.10;;;15.90;99.90;;;;;;5092717;28;20015;-62
2023/06/30 06:58:38;;;;;;;;;;;16.60;99.90;;;;;;5093132;28;20113;-63
2023/06/30 07:01:04;;;;;;;0.10;0.10;;;16.50;99.90;;;;;;5092295;28;19920;-65
2023/06/30 07:03:30;;;;;;;0.50;0.40;;;17.00;99.90;;;;;;5092538;28;20113;-64
2023/06/30 07:05:56;;;;;;;;;;;17.00;99.90;;;;;;5091804;28;20479;-62
2023/06/30 07:08:22;;;;;;;0.10;0.10;;;17.10;99.90;;;;;;5092523;28;20377;-62
2023/06/30 07:10:48;;;;;;;;;;;17.30;99.90;;;;;;5093525;28;20040;-63
2023/06/30 07:13:21;;;;;;;0.10;0.10;;;17.20;99.90;;;;;;5092485;28;19923;-63
2023/06/30 07:15:50;;;;;;;0.10;0.10;;;17.40;99.90;;;;;;5092525;28;20502;-62
2023/06/30 07:18:17;;;;;;;0.25;0.25;;;17.50;99.90;;;;;;5092469;28;20059;-61
2023/06/30 07:20:52;;;;;;;0.13;0.13;;;17.40;99.90;;;;;;5092304;28;20052;-62
2023/06/30 07:23:18;;;;;;;0.20;0.20;;;17.50;99.90;;;;;;5092298;28;20087;-64
2023/06/30 07:25:44;;;;;;;0.10;0.10;;;17.20;99.90;;;;;;5091255;28;20044;-61
2023/06/30 07:28:10;;;;;;;;;;;17.10;99.90;;;;;;5095843;28;20051;-63
2023/06/30 07:30:36;;;;;;;0.75;0.47;;;16.80;99.90;;;;;;5096208;28;19926;-62
2023/06/30 07:33:02;;;;;;;;;;;17.10;99.90;;;;;;5096046;28;20071;-61
2023/06/30 07:35:27;;;;;;;0.28;0.28;;;16.90;99.90;;;;;;5095810;28;19920;-61
2023/06/30 07:37:53;;;;;;;;;;;16.70;99.90;;;;;;5096657;28;20113;-65
2023/06/30 07:40:19;;;;;;;0.10;0.10;;;17.30;99.90;;;;;;5095635;28;19924;-64
2023/06/30 07:42:45;;;;;;;0.10;0.10;;;17.80;99.90;;;;;;5095546;28;20101;-65
2023/06/30 07:45:13;;;;;;;0.28;0.28;;;17.80;99.90;;;;;;5096304;28;20127;-62
2023/06/30 07:47:42;;;;;;;0.70;0.55;;;17.70;99.90;;;;;;5094260;28;20056;-64
2023/06/30 07:50:11;;;;;;;3.00;2.13;;;18.20;99.90;;;;;;5094804;28;20070;-62
2023/06/30 07:52:42;;;;;;;0.40;0.40;;;18.10;99.90;;;;;;5095553;28;20047;-62
2023/06/30 07:55:09;;;;;;;0.20;0.20;;;17.90;99.90;;;;;;5095318;28;20096;-62
2023/06/30 07:57:35;;;;;;;0.10;0.10;;;18.20;99.90;;;;;;5096058;28;20051;-65
2023/06/30 08:00:01;;;;;;;;;;;18.40;99.90;;;;;;5095700;28;20044;-61
2023/06/30 08:02:26;;;;;;;0.47;0.47;;;18.50;99.90;;;;;;5095076;28;20403;-64
2023/06/30 08:04:52;;;;;;;0.15;0.15;;;18.70;99.90;;;;;;5095724;28;20135;-60
2023/06/30 08:07:18;;;;;;;;;;;18.80;99.90;;;;;;5095733;28;20044;-61
2023/06/30 08:09:43;;;;;;;0.20;0.20;;;18.50;99.90;;;;;;5093881;28;19955;-62
2023/06/30 08:12:09;;;;;;;;;;;18.60;99.90;;;;;;5095690;28;20040;-62
2023/06/30 08:14:35;;;;;;;0.10;0.10;;;18.30;99.90;;;;;;5095135;28;20379;-61
2023/06/30 08:17:02;;;;;;;0.10;0.10;;;18.20;99.90;;;;;;5095481;28;20052;-61
2023/06/30 08:19:28;;;;;;;0.43;0.43;;;18.20;99.90;;;;;;5095182;28;20130;-61
2023/06/30 08:21:54;;;;;;;;;;;18.50;99.90;;;;;;5095981;28;20475;-62
2023/06/30 08:24:20;;;;;;;0.10;0.10;;;18.40;99.90;;;;;;5095325;28;20281;-61
2023/06/30 08:26:46;;;;;;;0.10;0.10;;;18.30;99.90;;;;;;5094603;28;20189;-61
2023/06/30 08:29:11;;;;;;;;;;;18.30;99.90;;;;;;5094833;28;20135;-62
2023/06/30 08:31:37;;;;;;;0.20;0.20;;;18.80;99.90;;;;;;5094885;28;19927;-64
2023/06/30 08:34:04;;;;;;;0.45;0.30;;;18.70;99.90;;;;;;5094761;28;20498;-62
2023/06/30 08:36:30;;;;;;;0.10;0.10;;;18.70;99.90;;;;;;5094462;28;20062;-61
2023/06/30 08:38:55;;;;;;;;;;;19.10;99.90;;;;;;5094991;28;20036;-64
2023/06/30 08:41:22;;;;;;;7.55;0.38;;;19.20;99.90;;;;;;5094157;28;19927;-63
2023/06/30 08:43:50;;;;;;;0.10;0.10;;;19.70;99.90;;;;;;5094524;28;20062;-62
2023/06/30 08:46:20;;;;;;;0.28;0.28;;;19.40;99.90;;;;;;5094549;28;20052;-62
2023/06/30 08:48:46;;;;;;;0.20;0.20;;;18.90;99.90;;;;;;5093360;28;20051;-63
2023/06/30 08:51:12;;;;;;;5.40;0.40;;;19.00;99.90;;;;;;5093325;28;20048;-62
2023/06/30 08:53:38;;;;;;;0.30;0.30;;;19.40;99.90;;;;;;5094358;28;20051;-62
2023/06/30 08:56:05;;;;;;;0.10;0.10;;;19.30;99.90;;;;;;5094318;28;20135;-61
2023/06/30 08:58:30;;;;;;;0.13;0.13;;;19.20;99.90;;;;;;5093093;28;20052;-63
2023/06/30 09:00:56;;;;;;;0.10;0.10;;;19.60;99.90;;;;;;5094190;28;20080;-62
2023/06/30 09:03:23;;;;;;;0.00;0.00;;;19.60;99.90;;;;;;5092881;28;20166;-60
2023/06/30 09:05:54;;;;;;;0.10;0.10;;;19.50;99.90;;;;;;5094144;28;20112;-63
2023/06/30 09:08:26;;;;;;;0.30;0.30;;;19.50;99.90;;;;;;5094439;28;20040;-62
2023/06/30 09:10:53;;;;;;;0.10;0.10;;;19.20;99.90;;;;;;5094806;28;20040;-62
2023/06/30 09:13:21;;;;;;;0.10;0.10;;;19.70;99.90;;;;;;5094011;28;20055;-63
2023/06/30 09:15:47;;;;;;;0.15;0.15;;;19.30;99.90;;;;;;5093276;28;20079;-62
2023/06/30 09:18:13;;;;;;;0.47;0.35;;;19.50;99.90;;;;;;5092763;28;20101;-61
2023/06/30 09:20:39;;;;;;;0.17;0.17;;;19.40;99.90;;;;;;5092922;28;20483;-61
2023/06/30 09:23:05;;;;;;;0.25;0.25;;;19.60;99.90;;;;;;5094397;28;20091;-62
2023/06/30 09:25:35;;;;;;;0.10;0.10;;;19.60;99.90;;;;;;5075776;28;20066;-64
2023/06/30 09:28:10;;;;;;;0.10;0.10;;;20.00;99.90;;;;;;5093827;28;20055;-67
2023/06/30 09:30:42;;;;;;;0.43;0.30;;;19.90;99.90;;;;;;5093811;28;20048;-64
2023/06/30 09:33:08;;;;;;;0.30;0.30;;;20.20;99.90;;;;;;5093105;28;20383;-62
2023/06/30 09:35:42;;;;;;;0.22;0.22;;;19.90;99.90;;;;;;5093598;28;20102;-62
2023/06/30 09:38:15;;;;;;;0.15;0.15;;;20.30;99.90;;;;;;5092979;28;20083;-64
2023/06/30 09:40:46;;;;;;;0.10;0.10;;;20.20;99.90;;;;;;5094147;28;20044;-68
2023/06/30 09:43:23;;;;;;;0.10;0.10;;;20.50;99.90;;;;;;5093454;28;20054;-62
2023/06/30 09:45:59;;;;;;;0.10;0.10;;;20.20;99.90;;;;;;5093542;28;20476;-68
2023/06/30 09:48:35;;;;;;;0.10;0.10;;;20.50;99.90;;;;;;5094274;28;20050;-62
2023/06/30 09:51:00;;;;;;;0.28;0.28;;;20.90;99.90;;;;;;5093053;28;20059;-62
2023/06/30 09:53:39;;;;;;;0.38;0.25;;;20.80;99.90;;;;;;5093319;28;20043;-62
2023/06/30 09:56:05;;;;;;;0.30;0.25;;;21.20;99.90;;;;;;5093207;28;20055;-61
2023/06/30 09:58:32;;;;;;;0.30;0.30;;;21.10;99.90;;;;;;5093119;28;20076;-62
2023/06/30 10:00:58;;;;;;;0.30;0.30;;;20.50;99.90;;;;;;5093598;28;20082;-62
2023/06/30 10:03:24;;;;;;;0.98;0.70;;;20.40;99.90;;;;;;5092567;28;20071;-62
2023/06/30 10:05:51;;;;;;;0.00;0.00;;;20.60;99.90;;;;;;5093284;28;20182;-61
2023/06/30 10:08:21;;;;;;;0.05;0.05;;;20.10;99.90;;;;;;5093509;28;20047;-62
2023/06/30 10:10:51;;;;;;;0.13;0.13;;;20.10;99.90;;;;;;5093174;28;20083;-63
2023/06/30 10:13:18;;;;;;;0.10;0.10;;;20.20;99.90;;;;;;5093222;28;20039;-62
2023/06/30 10:15:44;;;;;;;0.20;0.20;;;20.60;99.90;;;;;;5093873;28;20387;-62
2023/06/30 10:18:11;;;;;;;0.10;0.10;;;20.70;99.90;;;;;;5093237;28;20067;-62
2023/06/30 10:20:37;;;;;;;0.35;0.35;;;20.50;99.90;;;;;;5093206;28;20084;-62
2023/06/30 10:23:04;;;;;;;0.00;0.00;;;20.70;99.90;;;;;;5092999;28;20087;-62
2023/06/30 10:25:33;;;;;;;0.30;0.30;;;20.70;99.90;;;;;;5093703;28;20052;-62
2023/06/30 10:27:59;;;;;;;0.15;0.15;;;20.70;99.90;;;;;;5092728;28;20487;-65
2023/06/30 10:30:25;;;;;;;0.20;0.13;;;20.90;99.90;;;;;;5093034;28;20039;-62
2023/06/30 10:32:51;;;;;;;0.03;0.03;;;21.10;99.90;;;;;;5093018;28;20044;-63
2023/06/30 10:35:18;;;;;;;0.10;0.10;;;21.20;99.90;;;;;;5092999;28;20048;-64
2023/06/30 10:37:43;;;;;;;0.70;0.60;;;20.90;99.90;;;;;;5092995;28;20047;-62
2023/06/30 10:40:26;;;;;;;0.30;0.30;;;20.70;99.90;;;;;;5092952;28;20555;-63
2023/06/30 10:42:57;;;;;;;0.10;0.10;;;20.40;99.90;;;;;;5093395;28;20479;-63
2023/06/30 10:46:07;;;;;;;2.63;0.25;;;21.00;99.90;;;;;;5093328;28;20048;-62
2023/06/30 10:48:33;;;;;;;0.40;0.20;;;21.70;99.90;;;;;;5092894;28;20044;-62
2023/06/30 10:50:59;;;;;;;0.20;0.20;;;21.90;99.90;;;;;;5092536;28;20468;-62
2023/06/30 10:53:27;;;;;;;0.20;0.20;;;22.30;99.90;;;;;;5092738;28;20081;-62
2023/06/30 10:55:56;;;;;;;0.32;0.32;;;22.30;99.90;;;;;;5093316;28;20131;-62
2023/06/30 10:58:23;;;;;;;0.10;0.10;;;21.00;99.90;;;;;;5093543;28;20175;-63
2023/06/30 11:01:07;;;;;;;0.35;0.35;;;20.70;99.90;;;;;;5093233;28;20132;-61
2023/06/30 11:03:55;;;;;;;0.55;0.55;;;21.00;99.90;;;;;;5096440;28;20058;-62
2023/06/30 11:06:21;;;;;;;0.00;0.00;;;21.10;99.90;;;;;;5095304;28;20448;-62
2023/06/30 11:09:08;;;;;;;0.40;0.40;;;21.50;99.90;;;;;;5096456;28;20044;-62
2023/06/30 11:11:50;;;;;;;1.00;0.50;;;21.40;99.90;;;;;;5097242;28;20097;-62
2023/06/30 11:14:31;;;;;;;4.93;0.52;;;21.70;99.90;;;;;;5096666;28;20044;-63
2023/06/30 11:17:07;;;;;;;0.38;0.30;;;21.80;99.90;;;;;;5096437;28;20131;-62
2023/06/30 11:19:38;;;;;;;0.10;0.10;;;22.20;99.90;;;;;;5096413;28;20044;-62
2023/06/30 11:22:23;;;;;;;0.35;0.20;;;22.60;99.90;;;;;;5096257;28;20093;-62
2023/06/30 11:24:49;;;;;;;0.20;0.20;;;22.30;99.90;;;;;;5096243;28;20062;-62
2023/06/30 11:27:15;;;;;;;0.17;0.17;;;22.50;99.90;;;;;;5096915;28;20071;-62
2023/06/30 11:29:41;;;;;;;0.30;0.30;;;22.30;99.90;;;;;;5096178;28;20043;-62
2023/06/30 11:32:08;;;;;;;0.20;0.20;;;22.00;99.90;;;;;;5096082;28;20097;-62
2023/06/30 11:34:35;;;;;;;0.20;0.20;;;22.30;99.90;;;;;;5096574;28;20054;-62
2023/06/30 11:37:06;;;;;;;0.80;0.63;;;22.30;99.90;;;;;;5095929;28;20112;-62
2023/06/30 11:39:34;;;;;;;0.10;0.10;;;22.60;99.90;;;;;;5096688;28;20052;-62
2023/06/30 11:41:59;;;;;;;0.10;0.10;;;22.00;99.90;;;;;;5096150;28;20048;-63
2023/06/30 11:44:25;;;;;;;0.25;0.25;;;21.50;99.90;;;;;;5096289;28;20483;-62
2023/06/30 11:46:52;;;;;;;0.45;0.45;;;21.50;99.90;;;;;;5096324;28;20426;-62
2023/06/30 11:49:17;;;;;;;0.10;0.10;;;21.80;99.90;;;;;;5096244;28;20058;-62
2023/06/30 11:51:43;;;;;;;0.15;0.15;;;22.00;99.90;;;;;;5096295;28;20527;-64
2023/06/30 11:54:09;;;;;;;0.45;0.35;;;21.80;99.90;;;;;;5096277;28;20085;-62
2023/06/30 11:56:38;;;;;;;0.10;0.10;;;22.50;99.90;;;;;;5096477;28;20144;-64
2023/06/30 11:59:05;;;;;;;0.10;0.10;;;22.50;99.90;;;;;;5094406;28;20074;-61
2023/06/30 12:01:31;;;;;;;0.10;0.10;;;22.40;99.90;;;;;;5095566;28;20097;-62
2023/06/30 12:04:07;;;;;;;2.00;0.20;;;22.10;99.90;;;;;;5095362;28;20060;-62
2023/06/30 12:06:35;;;;;;;;;;;22.30;99.90;;;;;;5095757;28;20048;-64
2023/06/30 12:09:02;;;;;;;0.10;0.10;;;22.80;99.90;;;;;;5095335;28;19934;-62
2023/06/30 12:11:31;;;;;;;0.10;0.10;;;22.80;99.90;;;;;;5095338;28;20140;-62
2023/06/30 12:13:57;;;;;;;0.08;0.08;;;22.70;99.90;;;;;;5093856;28;20083;-63
2023/06/30 12:16:37;;;;;;;0.70;0.52;;;22.90;99.90;;;;;;5095232;28;20140;-65
2023/06/30 12:19:06;;;;;;;0.47;0.32;;;23.10;99.90;;;;;;5095202;28;20050;-63
2023/06/30 12:21:33;;;;;;;1.67;1.20;;;23.00;99.90;;;;;;5095095;28;20048;-63
2023/06/30 12:23:59;;;;;;;0.90;0.38;;;22.70;99.90;;;;;;5095538;28;20036;-61
2023/06/30 12:26:26;;;;;;;0.20;0.20;;;22.90;99.90;;;;;;5094723;28;20097;-63
2023/06/30 12:28:51;;;;;;;0.38;0.38;;;23.00;99.90;;;;;;5095106;28;20095;-64
2023/06/30 12:31:22;;;;;;;0.20;0.20;;;22.60;99.90;;;;;;5093815;28;20484;-63
2023/06/30 12:33:53;;;;;;;0.10;0.10;;;22.30;99.90;;;;;;5094973;28;20040;-63
2023/06/30 12:36:22;;;;;;;0.20;0.20;;;22.30;99.90;;;;;;5095117;28;20192;-63
2023/06/30 12:38:48;;;;;;;0.28;0.28;;;22.40;99.90;;;;;;5095071;28;20040;-61
2023/06/30 12:41:14;;;;;;;0.80;0.65;;;23.00;99.90;;;;;;5095338;28;20044;-63
2023/06/30 12:43:39;;;;;;;0.10;0.10;;;23.00;99.90;;;;;;5093441;28;20083;-62
2023/06/30 12:46:05;;;;;;;0.30;0.30;;;23.40;99.90;;;;;;5094646;28;20086;-62
2023/06/30 12:48:31;;;;;;;0.20;0.20;;;23.90;99.90;;;;;;5094590;28;20101;-63
2023/06/30 12:50:57;;;;;;;0.20;0.20;;;23.60;99.90;;;;;;5094794;28;20480;-63
2023/06/30 12:53:23;;;;;;;0.32;0.32;;;23.70;99.90;;;;;;5094243;28;20054;-66
2023/06/30 12:55:49;;;;;;;0.10;0.10;;;23.90;99.90;;;;;;5093181;28;20093;-65